sensor_id;sensor_type;location;lat;lon;timestamp;temperature;humidity
16140;DHT22;8175;49.326;12.690;2023-06-24T03:57:58;12.60;99.90
16140;DHT22;8175;49.326;12.690;2023-06-24T04:00:24;12.70;99.90
16140;DHT22;8175;49.326;12.690;2023-06-24T04:02:49;12.70;99.90
16140;DHT22;8175;49.326;12.690;2023-06-24T04:05:15;12.70;99.90
16140;DHT22;8175;49.326;12.690;2023-06-24T04:07:41;12.80;99.90
16140;DHT22;8175;49.326;12.690;2023-06-24T04:10:12;12.90;99.90
16140;DHT22;8175;49.326;12.690;2023-06-24T04:12:38;12.90;99.90
16140;DHT22;8175;49.326;12.690;2023-06-24T04:15:04;12.80;99.90
16140;DHT22;8175;49.326;12.690;2023-06-24T04:17:30;12.90;99.90
16140;DHT22;8175;49.326;12.690;2023-06-24T04:19:56;12.90;99.90
16140;DHT22;8175;49.326;12.690;2023-06-24T04:22:23;13.00;99.90
16140;DHT22;8175;49.326;12.690;2023-06-24T04:24:48;13.00;99.90
16140;DHT22;8175;49.326;12.690;2023-06-24T04:27:14;13.10;99.90
16140;DHT22;8175;49.326;12.690;2023-06-24T04:29:39;13.10;99.90
16140;DHT22;8175;49.326;12.690;2023-06-24T04:32:05;13.00;99.90
16140;DHT22;8175;49.326;12.690;2023-06-24T04:34:31;13.10;99.90
16140;DHT22;8175;49.326;12.690;2023-06-24T04:36:57;13.00;99.90
16140;DHT22;8175;49.326;12.690;2023-06-24T04:39:23;13.10;99.90
16140;DHT22;8175;49.326;12.690;2023-06-24T04:41:49;13.10;99.90
16140;DHT22;8175;49.326;12.690;2023-06-24T04:44:14;13.20;99.90
16140;DHT22;8175;49.326;12.690;2023-06-24T04:46:40;13.20;99.90
16140;DHT22;8175;49.326;12.690;2023-06-24T04:49:06;13.20;99.90
16140;DHT22;8175;49.326;12.690;2023-06-24T04:51:32;13.20;99.90
16140;DHT22;8175;49.326;12.690;2023-06-24T04:53:58;13.20;99.90
16140;DHT22;8175;49.326;12.690;2023-06-24T04:56:24;13.30;99.90
16140;DHT22;8175;49.326;12.690;2023-06-24T04:58:50;13.40;99.90
16140;DHT22;8175;49.326;12.690;2023-06-24T05:01:16;13.40;99.90
16140;DHT22;8175;49.326;12.690;2023-06-24T05:03:42;13.40;99.90
16140;DHT22;8175;49.326;12.690;2023-06-24T05:06:08;13.50;99.90
16140;DHT22;8175;49.326;12.690;2023-06-24T05:08:33;13.40;99.90
16140;DHT22;8175;49.326;12.690;2023-06-24T05:10:59;13.60;99.90
16140;DHT22;8175;49.326;12.690;2023-06-24T05:13:27;13.60;99.90
16140;DHT22;8175;49.326;12.690;2023-06-24T05:15:53;13.60;99.90
16140;DHT22;8175;49.326;12.690;2023-06-24T05:18:19;13.60;99.90
16140;DHT22;8175;49.326;12.690;2023-06-24T05:20:44;13.60;99.90
16140;DHT22;8175;49.326;12.690;2023-06-24T05:23:10;13.70;99.90
16140;DHT22;8175;49.326;12.690;2023-06-24T05:25:36;13.60;99.90
16140;DHT22;8175;49.326;12.690;2023-06-24T05:28:02;13.50;99.90
16140;DHT22;8175;49.326;12.690;2023-06-24T05:30:27;13.60;99.90
16140;DHT22;8175;49.326;12.690;2023-06-24T05:32:53;13.70;99.90
16140;DHT22;8175;49.326;12.690;2023-06-24T05:35:19;13.80;99.90
16140;DHT22;8175;49.326;12.690;2023-06-24T05:37:44;13.90;99.90
16140;DHT22;8175;49.326;12.690;2023-06-24T05:40:10;14.10;99.90
16140;DHT22;8175;49.326;12.690;2023-06-24T05:42:37;14.10;99.90
16140;DHT22;8175;49.326;12.690;2023-06-24T05:45:04;14.20;99.90
16140;DHT22;8175;49.326;12.690;2023-06-24T05:47:30;14.30;99.90
16140;DHT22;8175;49.326;12.690;2023-06-24T05:49:55;14.30;99.90
16140;DHT22;8175;49.326;12.690;2023-06-24T05:52:21;14.50;99.90
16140;DHT22;8175;49.326;12.690;2023-06-24T05:54:46;14.60;99.90
16140;DHT22;8175;49.326;12.690;2023-06-24T05:57:12;14.60;99.90
16140;DHT22;8175;49.326;12.690;2023-06-24T05:59:38;14.60;99.90
16140;DHT22;8175;49.326;12.690;2023-06-24T06:02:03;14.70;99.90
16140;DHT22;8175;49.326;12.690;2023-06-24T06:04:29;14.80;99.90
16140;DHT22;8175;49.326;12.690;2023-06-24T06:06:55;14.90;99.90
16140;DHT22;8175;49.326;12.690;2023-06-24T06:09:22;15.10;99.90
16140;DHT22;8175;49.326;12.690;2023-06-24T06:11:47;15.20;99.90
16140;DHT22;8175;49.326;12.690;2023-06-24T06:14:13;15.40;99.90
16140;DHT22;8175;49.326;12.690;2023-06-24T06:16:39;15.50;99.90
16140;DHT22;8175;49.326;12.690;2023-06-24T06:19:05;15.60;99.90
16140;DHT22;8175;49.326;12.690;2023-06-24T06:21:31;15.70;99.90
16140;DHT22;8175;49.326;12.690;2023-06-24T06:23:57;15.60;99.90
16140;DHT22;8175;49.326;12.690;2023-06-24T06:26:22;15.60;99.90
16140;DHT22;8175;49.326;12.690;2023-06-24T06:28:48;15.80;99.90
16140;DHT22;8175;49.326;12.690;2023-06-24T06:31:14;15.80;99.90
16140;DHT22;8175;49.326;12.690;2023-06-24T06:33:40;15.80;99.90
16140;DHT22;8175;49.326;12.690;2023-06-24T06:36:06;15.80;99.90
16140;DHT22;8175;49.326;12.690;2023-06-24T06:38:34;15.90;99.90
16140;DHT22;8175;49.326;12.690;2023-06-24T06:41:00;16.00;99.90
16140;DHT22;8175;49.326;12.690;2023-06-24T06:43:26;16.30;99.90
16140;DHT22;8175;49.326;12.690;2023-06-24T06:45:52;16.50;99.90
16140;DHT22;8175;49.326;12.690;2023-06-24T06:48:17;16.80;99.90
16140;DHT22;8175;49.326;12.690;2023-06-24T06:50:44;17.10;99.90
16140;DHT22;8175;49.326;12.690;2023-06-24T06:53:10;17.30;99.90
16140;DHT22;8175;49.326;12.690;2023-06-24T06:55:36;17.30;99.90
16140;DHT22;8175;49.326;12.690;2023-06-24T06:58:02;17.10;99.90
16140;DHT22;8175;49.326;12.690;2023-06-24T07:00:27;16.60;99.90
16140;DHT22;8175;49.326;12.690;2023-06-24T07:02:53;16.60;99.90
16140;DHT22;8175;49.326;12.690;2023-06-24T07:05:19;16.70;99.90
16140;DHT22;8175;49.326;12.690;2023-06-24T07:07:44;16.60;99.90
16140;DHT22;8175;49.326;12.690;2023-06-24T07:10:11;16.50;99.90
16140;DHT22;8175;49.326;12.690;2023-06-24T07:12:37;16.80;99.90
16140;DHT22;8175;49.326;12.690;2023-06-24T07:15:02;17.50;99.90
16140;DHT22;8175;49.326;12.690;2023-06-24T07:17:28;18.00;99.90
16140;DHT22;8175;49.326;12.690;2023-06-24T07:19:54;18.30;99.90
16140;DHT22;8175;49.326;12.690;2023-06-24T07:22:19;18.20;99.90
16140;DHT22;8175;49.326;12.690;2023-06-24T07:24:45;18.10;99.90
16140;DHT22;8175;49.326;12.690;2023-06-24T07:27:11;18.10;99.90
16140;DHT22;8175;49.326;12.690;2023-06-24T07:29:36;18.60;99.90
16140;DHT22;8175;49.326;12.690;2023-06-24T07:32:02;19.70;99.90
16140;DHT22;8175;49.326;12.690;2023-06-24T07:34:29;20.90;99.90
16140;DHT22;8175;49.326;12.690;2023-06-24T07:36:55;22.60;99.90
16140;DHT22;8175;49.326;12.690;2023-06-24T07:39:20;23.60;99.90
16140;DHT22;8175;49.326;12.690;2023-06-24T07:41:46;24.30;99.90
16140;DHT22;8175;49.326;12.690;2023-06-24T07:44:12;24.20;99.90
16140;DHT22;8175;49.326;12.690;2023-06-24T07:46:37;24.40;99.90
16140;DHT22;8175;49.326;12.690;2023-06-24T07:49:03;24.20;99.90
16140;DHT22;8175;49.326;12.690;2023-06-24T07:51:29;24.20;99.90
16140;DHT22;8175;49.326;12.690;2023-06-24T07:53:54;22.80;99.90
16140;DHT22;8175;49.326;12.690;2023-06-24T07:56:20;22.00;99.90
16140;DHT22;8175;49.326;12.690;2023-06-24T07:58:45;22.40;99.90
16140;DHT22;8175;49.326;12.690;2023-06-24T08:01:11;22.30;99.90
16140;DHT22;8175;49.326;12.690;2023-06-24T08:03:37;22.80;99.90
16140;DHT22;8175;49.326;12.690;2023-06-24T08:06:03;23.70;99.90
16140;DHT22;8175;49.326;12.690;2023-06-24T08:08:28;25.20;99.90
16140;DHT22;8175;49.326;12.690;2023-06-24T08:10:54;26.90;99.90
16140;DHT22;8175;49.326;12.690;2023-06-24T08:13:20;27.60;99.90
16140;DHT22;8175;49.326;12.690;2023-06-24T08:15:45;26.80;99.90
16140;DHT22;8175;49.326;12.690;2023-06-24T08:18:11;24.70;99.90
16140;DHT22;8175;49.326;12.690;2023-06-24T08:20:37;23.30;99.90
16140;DHT22;8175;49.326;12.690;2023-06-24T08:23:02;22.90;99.90
16140;DHT22;8175;49.326;12.690;2023-06-24T08:25:28;22.90;99.90
16140;DHT22;8175;49.326;12.690;2023-06-24T08:27:54;22.70;99.90
16140;DHT22;8175;49.326;12.690;2023-06-24T08:30:19;21.90;99.90
16140;DHT22;8175;49.326;12.690;2023-06-24T08:32:45;22.60;99.90
16140;DHT22;8175;49.326;12.690;2023-06-24T08:35:11;23.90;99.90
16140;DHT22;8175;49.326;12.690;2023-06-24T08:37:37;25.40;99.90
16140;DHT22;8175;49.326;12.690;2023-06-24T08:40:04;26.40;99.90
16140;DHT22;8175;49.326;12.690;2023-06-24T08:42:30;25.90;99.90
16140;DHT22;8175;49.326;12.690;2023-06-24T08:44:56;25.40;99.90
16140;DHT22;8175;49.326;12.690;2023-06-24T08:47:24;25.70;99.90
16140;DHT22;8175;49.326;12.690;2023-06-24T08:49:53;25.70;99.90
16140;DHT22;8175;49.326;12.690;2023-06-24T08:52:25;24.30;99.90
16140;DHT22;8175;49.326;12.690;2023-06-24T08:54:51;23.40;99.90
16140;DHT22;8175;49.326;12.690;2023-06-24T08:57:17;22.50;99.90
16140;DHT22;8175;49.326;12.690;2023-06-24T08:59:44;22.70;99.90
16140;DHT22;8175;49.326;12.690;2023-06-24T09:02:09;24.40;99.90
16140;DHT22;8175;49.326;12.690;2023-06-24T09:04:36;25.80;99.90
16140;DHT22;8175;49.326;12.690;2023-06-24T09:07:02;26.30;99.90
16140;DHT22;8175;49.326;12.690;2023-06-24T09:09:28;26.60;99.90
16140;DHT22;8175;49.326;12.690;2023-06-24T09:12:00;26.20;99.90
16140;DHT22;8175;49.326;12.690;2023-06-24T09:14:28;26.00;99.90
16140;DHT22;8175;49.326;12.690;2023-06-24T09:16:56;26.10;99.90
16140;DHT22;8175;49.326;12.690;2023-06-24T09:19:26;26.50;99.90
16140;DHT22;8175;49.326;12.690;2023-06-24T09:22:08;27.00;99.90
16140;DHT22;8175;49.326;12.690;2023-06-24T09:24:35;26.30;99.90
16140;DHT22;8175;49.326;12.690;2023-06-24T09:27:02;26.40;99.90
16140;DHT22;8175;49.326;12.690;2023-06-24T09:29:32;26.30;99.90
16140;DHT22;8175;49.326;12.690;2023-06-24T09:31:57;26.10;99.90
16140;DHT22;8175;49.326;12.690;2023-06-24T09:34:26;25.10;99.90
16140;DHT22;8175;49.326;12.690;2023-06-24T09:36:58;24.90;99.90
16140;DHT22;8175;49.326;12.690;2023-06-24T09:39:25;25.60;99.90
16140;DHT22;8175;49.326;12.690;2023-06-24T09:41:59;26.30;98.60
16140;DHT22;8175;49.326;12.690;2023-06-24T09:44:28;26.40;98.10
16140;DHT22;8175;49.326;12.690;2023-06-24T09:46:55;26.40;99.90
16140;DHT22;8175;49.326;12.690;2023-06-24T09:49:24;26.70;96.90
16140;DHT22;8175;49.326;12.690;2023-06-24T09:51:54;26.30;97.70
16140;DHT22;8175;49.326;12.690;2023-06-24T09:54:21;25.50;98.60
16140;DHT22;8175;49.326;12.690;2023-06-24T09:56:49;25.70;99.70
16140;DHT22;8175;49.326;12.690;2023-06-24T09:59:17;26.20;97.40
16140;DHT22;8175;49.326;12.690;2023-06-24T10:01:46;26.00;98.10
16140;DHT22;8175;49.326;12.690;2023-06-24T10:04:16;25.50;99.90
16140;DHT22;8175;49.326;12.690;2023-06-24T10:06:42;26.10;96.60
16140;DHT22;8175;49.326;12.690;2023-06-24T10:09:08;26.90;97.80
16140;DHT22;8175;49.326;12.690;2023-06-24T10:11:35;27.00;96.70
16140;DHT22;8175;49.326;12.690;2023-06-24T10:14:01;25.80;96.70
16140;DHT22;8175;49.326;12.690;2023-06-24T10:16:27;24.30;97.80
16140;DHT22;8175;49.326;12.690;2023-06-24T10:19:00;24.10;97.40
16140;DHT22;8175;49.326;12.690;2023-06-24T10:21:44;24.40;99.90
16140;DHT22;8175;49.326;12.690;2023-06-24T10:24:11;24.90;99.90
16140;DHT22;8175;49.326;12.690;2023-06-24T10:26:40;25.80;98.40
16140;DHT22;8175;49.326;12.690;2023-06-24T10:37:05;24.70;97.90
16140;DHT22;8175;49.326;12.690;2023-06-24T10:47:33;27.80;97.00
16140;DHT22;8175;49.326;12.690;2023-06-24T10:49:59;27.20;91.30
16140;DHT22;8175;49.326;12.690;2023-06-24T10:52:25;25.70;92.60
16140;DHT22;8175;49.326;12.690;2023-06-24T10:54:52;26.00;93.30
16140;DHT22;8175;49.326;12.690;2023-06-24T10:57:25;26.80;94.90
16140;DHT22;8175;49.326;12.690;2023-06-24T10:59:53;27.30;93.10
16140;DHT22;8175;49.326;12.690;2023-06-24T11:02:21;26.00;93.20
16140;DHT22;8175;49.326;12.690;2023-06-24T11:05:00;25.10;94.10
16140;DHT22;8175;49.326;12.690;2023-06-24T11:07:28;25.90;93.30
16140;DHT22;8175;49.326;12.690;2023-06-24T11:09:58;27.20;96.00
16140;DHT22;8175;49.326;12.690;2023-06-24T11:12:29;27.90;93.30
16140;DHT22;8175;49.326;12.690;2023-06-24T11:14:58;28.20;83.60
16140;DHT22;8175;49.326;12.690;2023-06-24T11:17:25;28.80;80.10
16140;DHT22;8175;49.326;12.690;2023-06-24T11:19:52;29.00;84.90
16140;DHT22;8175;49.326;12.690;2023-06-24T11:22:18;28.50;78.10
16140;DHT22;8175;49.326;12.690;2023-06-24T11:24:44;28.80;73.70
16140;DHT22;8175;49.326;12.690;2023-06-24T11:27:09;29.10;77.10
16140;DHT22;8175;49.326;12.690;2023-06-24T11:29:35;29.50;75.00
16140;DHT22;8175;49.326;12.690;2023-06-24T11:32:07;30.10;73.10
16140;DHT22;8175;49.326;12.690;2023-06-24T11:34:34;30.70;70.60
16140;DHT22;8175;49.326;12.690;2023-06-24T11:37:12;30.30;73.40
16140;DHT22;8175;49.326;12.690;2023-06-24T11:39:38;29.50;70.10
16140;DHT22;8175;49.326;12.690;2023-06-24T11:42:06;29.40;68.90
16140;DHT22;8175;49.326;12.690;2023-06-24T11:44:32;28.90;72.10
16140;DHT22;8175;49.326;12.690;2023-06-24T11:47:07;27.80;73.50
16140;DHT22;8175;49.326;12.690;2023-06-24T11:49:54;27.00;74.00
16140;DHT22;8175;49.326;12.690;2023-06-24T11:52:44;28.10;71.90
16140;DHT22;8175;49.326;12.690;2023-06-24T11:55:23;29.10;69.00
16140;DHT22;8175;49.326;12.690;2023-06-24T11:57:59;29.30;71.50
16140;DHT22;8175;49.326;12.690;2023-06-24T12:00:31;28.40;70.60
16140;DHT22;8175;49.326;12.690;2023-06-24T12:03:03;28.00;71.30
16140;DHT22;8175;49.326;12.690;2023-06-24T12:05:34;29.00;69.90
16140;DHT22;8175;49.326;12.690;2023-06-24T12:08:00;29.20;70.20
16140;DHT22;8175;49.326;12.690;2023-06-24T12:10:27;29.20;73.40
16140;DHT22;8175;49.326;12.690;2023-06-24T12:12:55;27.80;70.50
16140;DHT22;8175;49.326;12.690;2023-06-24T12:15:21;26.40;74.60
16140;DHT22;8175;49.326;12.690;2023-06-24T12:17:47;26.30;76.00
16140;DHT22;8175;49.326;12.690;2023-06-24T12:20:14;27.60;72.50
16140;DHT22;8175;49.326;12.690;2023-06-24T12:22:41;29.00;69.80
16140;DHT22;8175;49.326;12.690;2023-06-24T12:25:07;29.50;69.90
16140;DHT22;8175;49.326;12.690;2023-06-24T12:27:32;29.80;68.60
16140;DHT22;8175;49.326;12.690;2023-06-24T12:29:59;28.80;67.50
16140;DHT22;8175;49.326;12.690;2023-06-24T12:32:25;27.80;74.30
16140;DHT22;8175;49.326;12.690;2023-06-24T12:34:51;28.30;68.00
16140;DHT22;8175;49.326;12.690;2023-06-24T12:37:17;28.90;66.20
16140;DHT22;8175;49.326;12.690;2023-06-24T12:39:43;28.40;66.30
16140;DHT22;8175;49.326;12.690;2023-06-24T12:42:09;28.30;72.50
16140;DHT22;8175;49.326;12.690;2023-06-24T12:44:34;26.70;74.10
16140;DHT22;8175;49.326;12.690;2023-06-24T12:47:00;25.60;76.30
16140;DHT22;8175;49.326;12.690;2023-06-24T12:49:25;25.70;79.80
16140;DHT22;8175;49.326;12.690;2023-06-24T12:51:51;25.00;79.40
16140;DHT22;8175;49.326;12.690;2023-06-24T12:54:17;24.60;84.30
16140;DHT22;8175;49.326;12.690;2023-06-24T12:56:43;25.00;76.60
16140;DHT22;8175;49.326;12.690;2023-06-24T12:59:09;25.00;80.90
16140;DHT22;8175;49.326;12.690;2023-06-24T13:01:34;25.00;85.50
16140;DHT22;8175;49.326;12.690;2023-06-24T13:04:00;25.90;81.60
16140;DHT22;8175;49.326;12.690;2023-06-24T13:06:25;26.00;80.30
16140;DHT22;8175;49.326;12.690;2023-06-24T13:08:51;24.80;82.50
16140;DHT22;8175;49.326;12.690;2023-06-24T13:11:17;23.90;80.60
16140;DHT22;8175;49.326;12.690;2023-06-24T13:13:43;24.30;90.40
16140;DHT22;8175;49.326;12.690;2023-06-24T13:16:08;26.00;85.50
16140;DHT22;8175;49.326;12.690;2023-06-24T13:18:34;27.70;80.70
16140;DHT22;8175;49.326;12.690;2023-06-24T13:20:59;28.80;68.40
16140;DHT22;8175;49.326;12.690;2023-06-24T13:23:25;29.20;69.60
16140;DHT22;8175;49.326;12.690;2023-06-24T13:25:51;30.00;62.50
16140;DHT22;8175;49.326;12.690;2023-06-24T13:28:16;29.20;70.50
16140;DHT22;8175;49.326;12.690;2023-06-24T13:30:42;28.40;70.90
16140;DHT22;8175;49.326;12.690;2023-06-24T13:33:08;27.50;69.70
16140;DHT22;8175;49.326;12.690;2023-06-24T13:35:33;27.20;72.00
16140;DHT22;8175;49.326;12.690;2023-06-24T13:37:59;28.00;68.00
16140;DHT22;8175;49.326;12.690;2023-06-24T13:40:25;28.30;67.60
16140;DHT22;8175;49.326;12.690;2023-06-24T13:42:51;28.80;66.50
16140;DHT22;8175;49.326;12.690;2023-06-24T13:45:16;29.50;64.90
16140;DHT22;8175;49.326;12.690;2023-06-24T13:47:42;29.00;62.10
16140;DHT22;8175;49.326;12.690;2023-06-24T13:50:08;28.80;63.70
16140;DHT22;8175;49.326;12.690;2023-06-24T13:52:34;29.00;62.20
16140;DHT22;8175;49.326;12.690;2023-06-24T13:55:00;29.70;61.80
16140;DHT22;8175;49.326;12.690;2023-06-24T13:57:25;29.60;62.20
16140;DHT22;8175;49.326;12.690;2023-06-24T13:59:51;27.70;65.50
16140;DHT22;8175;49.326;12.690;2023-06-24T14:02:17;26.70;70.50
16140;DHT22;8175;49.326;12.690;2023-06-24T14:04:43;26.00;73.00
16140;DHT22;8175;49.326;12.690;2023-06-24T14:07:08;26.50;77.30
16140;DHT22;8175;49.326;12.690;2023-06-24T14:09:34;27.70;72.00
16140;DHT22;8175;49.326;12.690;2023-06-24T14:12:00;27.90;63.50
16140;DHT22;8175;49.326;12.690;2023-06-24T14:14:26;28.20;63.40
16140;DHT22;8175;49.326;12.690;2023-06-24T14:16:51;28.50;63.30
16140;DHT22;8175;49.326;12.690;2023-06-24T14:19:17;28.50;58.00
16140;DHT22;8175;49.326;12.690;2023-06-24T14:21:43;29.30;59.20
16140;DHT22;8175;49.326;12.690;2023-06-24T14:24:08;29.10;59.30
16140;DHT22;8175;49.326;12.690;2023-06-24T14:26:36;28.90;59.40
16140;DHT22;8175;49.326;12.690;2023-06-24T14:29:03;29.10;59.90
16140;DHT22;8175;49.326;12.690;2023-06-24T14:31:28;29.70;58.40
16140;DHT22;8175;49.326;12.690;2023-06-24T14:33:54;29.70;59.90
16140;DHT22;8175;49.326;12.690;2023-06-24T14:36:20;29.70;56.00
16140;DHT22;8175;49.326;12.690;2023-06-24T14:38:45;29.80;57.30
16140;DHT22;8175;49.326;12.690;2023-06-24T14:41:11;29.30;55.80
16140;DHT22;8175;49.326;12.690;2023-06-24T14:43:36;29.00;58.90
16140;DHT22;8175;49.326;12.690;2023-06-24T14:46:02;28.70;56.50
16140;DHT22;8175;49.326;12.690;2023-06-24T14:48:28;28.40;57.30
16140;DHT22;8175;49.326;12.690;2023-06-24T14:50:54;28.60;58.60
16140;DHT22;8175;49.326;12.690;2023-06-24T14:53:20;28.70;58.10
16140;DHT22;8175;49.326;12.690;2023-06-24T14:55:46;29.00;54.90
16140;DHT22;8175;49.326;12.690;2023-06-24T14:58:11;29.50;53.50
16140;DHT22;8175;49.326;12.690;2023-06-24T15:00:37;29.30;54.70
16140;DHT22;8175;49.326;12.690;2023-06-24T15:03:03;29.60;57.10
16140;DHT22;8175;49.326;12.690;2023-06-24T15:05:28;29.40;54.90
16140;DHT22;8175;49.326;12.690;2023-06-24T15:07:54;28.60;53.70
16140;DHT22;8175;49.326;12.690;2023-06-24T15:10:20;28.30;57.30
16140;DHT22;8175;49.326;12.690;2023-06-24T15:12:45;28.30;56.20
16140;DHT22;8175;49.326;12.690;2023-06-24T15:15:11;28.30;55.80
16140;DHT22;8175;49.326;12.690;2023-06-24T15:17:36;28.60;58.70
16140;DHT22;8175;49.326;12.690;2023-06-24T15:20:07;28.80;56.00
16140;DHT22;8175;49.326;12.690;2023-06-24T15:22:34;28.50;57.10
16140;DHT22;8175;49.326;12.690;2023-06-24T15:25:00;28.30;57.70
16140;DHT22;8175;49.326;12.690;2023-06-24T15:27:25;28.40;54.60
16140;DHT22;8175;49.326;12.690;2023-06-24T15:29:51;28.90;57.30
16140;DHT22;8175;49.326;12.690;2023-06-24T15:32:16;29.00;56.80
16140;DHT22;8175;49.326;12.690;2023-06-24T15:34:42;28.80;54.10
16140;DHT22;8175;49.326;12.690;2023-06-24T15:37:08;28.40;54.10
16140;DHT22;8175;49.326;12.690;2023-06-24T15:39:33;28.20;51.30
16140;DHT22;8175;49.326;12.690;2023-06-24T15:41:59;28.10;52.80
16140;DHT22;8175;49.326;12.690;2023-06-24T15:44:24;28.10;53.40
16140;DHT22;8175;49.326;12.690;2023-06-24T15:46:50;27.90;50.40
16140;DHT22;8175;49.326;12.690;2023-06-24T15:49:16;27.80;55.80
16140;DHT22;8175;49.326;12.690;2023-06-24T15:51:41;27.90;54.00
16140;DHT22;8175;49.326;12.690;2023-06-24T15:54:07;28.20;53.90
16140;DHT22;8175;49.326;12.690;2023-06-24T15:56:33;28.30;53.30
16140;DHT22;8175;49.326;12.690;2023-06-24T15:58:58;28.70;53.60
16140;DHT22;8175;49.326;12.690;2023-06-24T16:01:24;29.20;53.50
16140;DHT22;8175;49.326;12.690;2023-06-24T16:03:50;29.20;52.60
16140;DHT22;8175;49.326;12.690;2023-06-24T16:06:15;28.90;51.50
16140;DHT22;8175;49.326;12.690;2023-06-24T16:08:41;28.60;51.50
16140;DHT22;8175;49.326;12.690;2023-06-24T16:11:07;28.40;49.60
16140;DHT22;8175;49.326;12.690;2023-06-24T16:13:32;27.80;51.70
16140;DHT22;8175;49.326;12.690;2023-06-24T16:15:58;27.50;51.50
16140;DHT22;8175;49.326;12.690;2023-06-24T16:18:24;27.30;50.90
16140;DHT22;8175;49.326;12.690;2023-06-24T16:20:50;27.10;54.20
16140;DHT22;8175;49.326;12.690;2023-06-24T16:23:15;27.20;53.50
16140;DHT22;8175;49.326;12.690;2023-06-24T16:25:41;27.20;55.70
16140;DHT22;8175;49.326;12.690;2023-06-24T16:28:07;27.10;53.20
16140;DHT22;8175;49.326;12.690;2023-06-24T16:30:32;27.00;53.80
16140;DHT22;8175;49.326;12.690;2023-06-24T16:32:58;27.00;52.80
16140;DHT22;8175;49.326;12.690;2023-06-24T16:35:23;26.90;55.70
16140;DHT22;8175;49.326;12.690;2023-06-24T16:37:49;26.90;53.90
16140;DHT22;8175;49.326;12.690;2023-06-24T16:40:15;26.50;52.30
16140;DHT22;8175;49.326;12.690;2023-06-24T16:42:40;26.40;53.90
16140;DHT22;8175;49.326;12.690;2023-06-24T16:45:06;26.20;54.50
16140;DHT22;8175;49.326;12.690;2023-06-24T16:47:32;26.00;52.60
16140;DHT22;8175;49.326;12.690;2023-06-24T16:49:57;26.00;54.20
16140;DHT22;8175;49.326;12.690;2023-06-24T16:52:24;26.00;53.10
16140;DHT22;8175;49.326;12.690;2023-06-24T16:54:50;26.00;51.60
16140;DHT22;8175;49.326;12.690;2023-06-24T16:57:16;25.50;52.00
16140;DHT22;8175;49.326;12.690;2023-06-24T16:59:42;25.40;54.80
16140;DHT22;8175;49.326;12.690;2023-06-24T17:02:07;25.30;52.20
16140;DHT22;8175;49.326;12.690;2023-06-24T17:04:33;25.10;54.30
16140;DHT22;8175;49.326;12.690;2023-06-24T17:06:58;25.40;56.30
16140;DHT22;8175;49.326;12.690;2023-06-24T17:09:24;25.20;53.70
16140;DHT22;8175;49.326;12.690;2023-06-24T17:11:50;25.00;51.50
16140;DHT22;8175;49.326;12.690;2023-06-24T17:14:15;24.90;55.70
16140;DHT22;8175;49.326;12.690;2023-06-24T17:16:41;25.10;55.00
16140;DHT22;8175;49.326;12.690;2023-06-24T17:19:06;25.00;54.90
16140;DHT22;8175;49.326;12.690;2023-06-24T17:21:32;24.90;52.40
16140;DHT22;8175;49.326;12.690;2023-06-24T17:23:58;25.10;55.00
16140;DHT22;8175;49.326;12.690;2023-06-24T17:26:24;25.20;55.80
16140;DHT22;8175;49.326;12.690;2023-06-24T17:28:49;25.30;55.10
16140;DHT22;8175;49.326;12.690;2023-06-24T17:31:15;25.00;54.90
16140;DHT22;8175;49.326;12.690;2023-06-24T17:33:41;25.10;58.10
16140;DHT22;8175;49.326;12.690;2023-06-24T17:36:06;24.90;60.50
16140;DHT22;8175;49.326;12.690;2023-06-24T17:38:32;25.10;57.90
16140;DHT22;8175;49.326;12.690;2023-06-24T17:40:58;25.10;60.80
16140;DHT22;8175;49.326;12.690;2023-06-24T17:43:23;25.00;56.90
16140;DHT22;8175;49.326;12.690;2023-06-24T17:45:49;24.70;57.50
16140;DHT22;8175;49.326;12.690;2023-06-24T17:48:15;24.50;57.80
16140;DHT22;8175;49.326;12.690;2023-06-24T17:50:40;24.60;63.00
16140;DHT22;8175;49.326;12.690;2023-06-24T17:53:06;24.50;62.30
16140;DHT22;8175;49.326;12.690;2023-06-24T17:55:32;24.40;59.30
16140;DHT22;8175;49.326;12.690;2023-06-24T17:58:02;24.40;60.30
16140;DHT22;8175;49.326;12.690;2023-06-24T18:00:28;24.20;60.70
16140;DHT22;8175;49.326;12.690;2023-06-24T18:02:56;24.10;59.10
16140;DHT22;8175;49.326;12.690;2023-06-24T18:05:22;23.70;63.40
16140;DHT22;8175;49.326;12.690;2023-06-24T18:07:47;23.30;63.10
16140;DHT22;8175;49.326;12.690;2023-06-24T18:10:14;23.00;62.20
16140;DHT22;8175;49.326;12.690;2023-06-24T18:12:40;22.70;62.40
16140;DHT22;8175;49.326;12.690;2023-06-24T18:15:07;22.50;75.00
16140;DHT22;8175;49.326;12.690;2023-06-24T18:17:33;22.30;85.60
16140;DHT22;8175;49.326;12.690;2023-06-24T18:19:58;22.10;83.90
16140;DHT22;8175;49.326;12.690;2023-06-24T18:22:24;21.80;93.60
16140;DHT22;8175;49.326;12.690;2023-06-24T18:24:52;21.60;97.20
16140;DHT22;8175;49.326;12.690;2023-06-24T18:27:18;21.30;97.50
16140;DHT22;8175;49.326;12.690;2023-06-24T18:29:44;21.00;97.80
16140;DHT22;8175;49.326;12.690;2023-06-24T18:32:10;20.90;99.90
16140;DHT22;8175;49.326;12.690;2023-06-24T18:34:36;20.70;99.90
16140;DHT22;8175;49.326;12.690;2023-06-24T18:37:01;20.50;99.90
16140;DHT22;8175;49.326;12.690;2023-06-24T18:39:27;20.30;99.90
16140;DHT22;8175;49.326;12.690;2023-06-24T18:41:53;20.10;99.90
16140;DHT22;8175;49.326;12.690;2023-06-24T18:44:18;19.90;99.90
16140;DHT22;8175;49.326;12.690;2023-06-24T18:46:44;19.80;99.90
16140;DHT22;8175;49.326;12.690;2023-06-24T18:49:09;19.60;99.90
16140;DHT22;8175;49.326;12.690;2023-06-24T18:51:35;19.40;99.90
16140;DHT22;8175;49.326;12.690;2023-06-24T18:54:01;19.20;99.90
16140;DHT22;8175;49.326;12.690;2023-06-24T18:56:27;19.00;99.90
16140;DHT22;8175;49.326;12.690;2023-06-24T18:58:52;18.80;99.90
16140;DHT22;8175;49.326;12.690;2023-06-24T19:01:18;18.60;99.90
16140;DHT22;8175;49.326;12.690;2023-06-24T19:03:44;18.40;99.90
16140;DHT22;8175;49.326;12.690;2023-06-24T19:06:09;18.30;99.90
16140;DHT22;8175;49.326;12.690;2023-06-24T19:08:35;18.10;99.90
16140;DHT22;8175;49.326;12.690;2023-06-24T19:11:01;17.90;99.90
16140;DHT22;8175;49.326;12.690;2023-06-24T19:13:26;17.80;99.90
16140;DHT22;8175;49.326;12.690;2023-06-24T19:15:52;17.60;99.90
16140;DHT22;8175;49.326;12.690;2023-06-24T19:18:18;17.50;99.90
16140;DHT22;8175;49.326;12.690;2023-06-24T19:20:43;17.30;99.90
16140;DHT22;8175;49.326;12.690;2023-06-24T19:23:10;17.20;99.90
16140;DHT22;8175;49.326;12.690;2023-06-24T19:25:36;17.10;99.90
16140;DHT22;8175;49.326;12.690;2023-06-24T19:28:02;17.00;99.90
16140;DHT22;8175;49.326;12.690;2023-06-24T19:30:28;16.80;99.90
16140;DHT22;8175;49.326;12.690;2023-06-24T19:32:53;16.60;99.90
16140;DHT22;8175;49.326;12.690;2023-06-24T19:35:19;16.50;99.90
16140;DHT22;8175;49.326;12.690;2023-06-24T19:37:45;16.40;99.90